Time;durP1;ratioP1;P1;durP2;ratioP2;P2;SDS_P1;SDS_P2;PMS_P1;PMS_P2;Temp;Humidity;BMP_temperature;BMP_pressure;BME280_temperature;BME280_humidity;BME280_pressure;Samples;Min_cycle;Max_cycle;Signal;HPM_P1;HPM_P2
2022/02/02 00:01:13;;;;;;;4.60;3.78;;;;;;;;;;5029689;28;20207;-83
2022/02/02 00:03:42;;;;;;;5.43;3.47;;;;;;;;;;5029586;28;20227;-83
2022/02/02 00:06:14;;;;;;;4.80;4.05;;;;;;;;;;5027688;28;20267;-83
2022/02/02 00:08:52;;;;;;;5.03;3.95;;;6.00;99.90;;;;;;5007146;28;20307;-83
2022/02/02 00:14:13;;;;;;;4.78;2.55;;;6.00;99.90;;;;;;5028507;28;20212;-84
2022/02/02 00:16:48;;;;;;;3.40;2.67;;;5.90;99.90;;;;;;5029420;28;20279;-83
2022/02/02 00:19:24;;;;;;;3.10;2.47;;;5.90;99.90;;;;;;5029767;28;20701;-83
2022/02/02 00:21:56;;;;;;;2.85;2.42;;;5.80;99.90;;;;;;5013645;28;20219;-83
2022/02/02 00:24:31;;;;;;;2.42;2.20;;;5.80;99.90;;;;;;5028758;28;20256;-83
2022/02/02 00:27:03;;;;;;;2.58;2.00;;;;;;;;;;5028833;28;20211;-83
2022/02/02 00:29:35;;;;;;;1.70;1.60;;;5.70;99.90;;;;;;5028693;28;20247;-83
2022/02/02 00:32:09;;;;;;;2.15;1.75;;;5.80;99.90;;;;;;5029147;28;20607;-83
2022/02/02 00:34:36;;;;;;;5.80;2.17;;;5.80;99.90;;;;;;5028640;28;20207;-83
2022/02/02 00:37:03;;;;;;;4.95;2.40;;;5.80;99.90;;;;;;5028873;28;20201;-83
2022/02/02 00:39:33;;;;;;;2.47;2.00;;;5.80;99.90;;;;;;5028842;28;20236;-83
2022/02/02 00:42:02;;;;;;;3.45;1.55;;;5.70;99.90;;;;;;5014736;28;20200;-82
2022/02/02 00:44:29;;;;;;;6.75;1.60;;;5.70;99.90;;;;;;5027732;28;20217;-83
2022/02/02 00:46:57;;;;;;;1.75;1.60;;;5.60;99.90;;;;;;5028648;28;20295;-83
2022/02/02 00:49:24;;;;;;;4.90;1.73;;;5.40;99.90;;;;;;5028990;28;20247;-83
2022/02/02 00:51:56;;;;;;;1.80;1.70;;;5.50;99.90;;;;;;5028908;28;20283;-83
2022/02/02 00:54:25;;;;;;;3.90;1.90;;;5.60;99.90;;;;;;5028441;28;20216;-83
2022/02/02 00:56:53;;;;;;;3.55;1.63;;;5.40;99.90;;;;;;5025256;28;20270;-83
2022/02/02 00:59:22;;;;;;;1.98;1.80;;;5.60;99.90;;;;;;5026664;28;20224;-83
2022/02/02 01:01:49;;;;;;;1.63;1.52;;;5.90;99.90;;;;;;5021347;28;20420;-83
2022/02/02 01:04:16;;;;;;;1.85;1.75;;;5.40;99.90;;;;;;5022199;28;20705;-83
2022/02/02 01:06:52;;;;;;;2.22;1.77;;;5.80;99.90;;;;;;5027948;28;20200;-83
2022/02/02 01:09:26;;;;;;;4.57;1.42;;;5.80;99.90;;;;;;5027903;28;20204;-83
2022/02/02 01:12:21;;;;;;;2.53;2.13;;;6.00;99.90;;;;;;5024423;28;20303;-83
2022/02/02 01:20:30;;;;;;;2.17;1.90;;;5.90;99.90;;;;;;5028302;28;20618;-83
2022/02/02 01:28:30;;;;;;;3.67;2.15;;;6.00;99.90;;;;;;5028344;28;20261;-83
2022/02/02 01:31:00;;;;;;;3.30;2.20;;;6.00;99.90;;;;;;5028209;28;20204;-83
2022/02/02 01:33:27;;;;;;;3.13;1.60;;;6.00;99.90;;;;;;5028077;28;20253;-83
2022/02/02 01:35:54;;;;;;;3.10;2.00;;;6.00;99.90;;;;;;5027239;28;20208;-83
2022/02/02 01:38:23;;;;;;;5.55;2.33;;;6.00;99.90;;;;;;5027898;28;20188;-82
2022/02/02 01:40:54;;;;;;;3.42;1.75;;;6.10;99.90;;;;;;5017860;28;20197;-83
2022/02/02 01:43:26;;;;;;;2.83;1.67;;;6.10;99.90;;;;;;5013377;28;20591;-83
2022/02/02 01:45:57;;;;;;;4.63;2.45;;;6.10;99.90;;;;;;5027701;28;20231;-83
2022/02/02 01:48:32;;;;;;;3.22;1.60;;;6.20;99.90;;;;;;5028332;28;20291;-83
2022/02/02 01:51:10;;;;;;;1.85;1.55;;;6.00;99.90;;;;;;5027085;28;20679;-83
2022/02/02 01:53:46;;;;;;;2.17;1.85;;;6.10;99.90;;;;;;5028308;28;20195;-83
2022/02/02 01:56:15;;;;;;;2.90;2.30;;;6.20;99.90;;;;;;5027336;28;20270;-83
2022/02/02 01:59:00;;;;;;;3.15;1.70;;;6.10;99.90;;;;;;5020247;28;20216;-83
2022/02/02 02:01:29;;;;;;;1.65;1.23;;;6.20;99.90;;;;;;5024973;28;20236;-83
2022/02/02 02:03:56;;;;;;;3.00;1.60;;;6.20;99.90;;;;;;5022650;28;20320;-84
2022/02/02 02:06:24;;;;;;;6.43;2.05;;;6.20;99.90;;;;;;5026818;28;20724;-83
2022/02/02 02:08:52;;;;;;;5.47;2.10;;;6.20;99.90;;;;;;5028001;28;20291;-83
2022/02/02 02:11:21;;;;;;;1.80;1.65;;;6.20;99.90;;;;;;5027747;28;20204;-83
2022/02/02 02:14:24;;;;;;;3.08;1.85;;;6.60;99.90;;;;;;5027087;28;20209;-83
2022/02/02 02:16:47;;;;;;;3.50;2.75;;;6.20;99.90;;;;;;5027338;28;20201;-83
2022/02/02 02:19:15;;;;;;;3.58;2.63;;;6.30;99.90;;;;;;5027769;28;20569;-83
2022/02/02 02:21:44;;;;;;;4.97;2.25;;;6.30;99.90;;;;;;5027742;28;20189;-83
2022/02/02 02:24:12;;;;;;;2.75;2.53;;;6.70;99.90;;;;;;5026575;28;20243;-83
2022/02/02 02:26:41;;;;;;;8.60;2.95;;;6.30;99.90;;;;;;5027866;28;20205;-83
2022/02/02 02:29:27;;;;;;;5.22;3.60;;;6.40;99.90;;;;;;5027447;28;20293;-83
2022/02/02 02:32:11;;;;;;;4.32;3.33;;;6.40;99.90;;;;;;5027776;28;20296;-83
2022/02/02 02:34:56;;;;;;;3.20;2.90;;;6.30;99.90;;;;;;5027064;28;20192;-83
2022/02/02 02:37:40;;;;;;;5.63;3.50;;;;;;;;;;5027543;28;20279;-82
2022/02/02 02:40:23;;;;;;;7.72;4.20;;;6.40;99.90;;;;;;5024125;28;20244;-83
2022/02/02 02:56:38;;;;;;;4.70;3.47;;;6.60;99.90;;;;;;5031276;28;20212;-82
2022/02/02 02:59:08;;;;;;;4.68;3.08;;;;;;;;;;5031064;28;20212;-83
2022/02/02 03:02:06;;;;;;;8.02;4.00;;;7.30;99.90;;;;;;5027813;28;22194;-83
2022/02/02 03:29:58;;;;;;;11.70;4.38;;;6.50;99.90;;;;;;5029552;28;20327;-83
2022/02/02 03:35:22;;;;;;;5.45;2.80;;;;;;;;;;5029583;28;20201;-83
2022/02/02 03:51:43;;;;;;;7.03;3.75;;;;;;;;;;5029862;28;20216;-83
2022/02/02 03:54:31;;;;;;;7.35;3.35;;;;;;;;;;5029107;28;20211;-83
2022/02/02 03:59:57;;;;;;;3.80;2.55;;;6.30;99.90;;;;;;5029620;28;20200;-83
2022/02/02 04:02:46;;;;;;;2.95;2.40;;;;;;;;;;5027140;28;20667;-83
2022/02/02 04:08:17;;;;;;;6.93;2.75;;;;;;;;;;5027545;28;20307;-83
2022/02/02 04:10:44;;;;;;;9.38;2.40;;;;;;;;;;5014539;28;20197;-83
2022/02/02 04:13:20;;;;;;;6.57;3.10;;;;;;;;;;5029530;28;20208;-83
2022/02/02 04:38:46;;;;;;;2.97;1.92;;;;;;;;;;5028999;28;20196;-83
2022/02/02 04:52:33;;;;;;;4.63;3.05;;;6.50;99.90;;;;;;5028597;28;20758;-83
2022/02/02 04:55:06;;;;;;;10.40;4.55;;;;;;;;;;5028636;28;20564;-83
2022/02/02 04:58:01;;;;;;;6.00;3.08;;;6.50;99.90;;;;;;5028691;28;20200;-84
2022/02/02 05:06:04;;;;;;;6.85;2.33;;;;;;;;;;5027055;28;20572;-83
2022/02/02 05:08:38;;;;;;;4.95;2.05;;;6.30;99.90;;;;;;5027995;28;20191;-83
2022/02/02 05:11:31;;;;;;;4.00;2.15;;;;;;;;;;5026637;28;20203;-83
2022/02/02 05:16:54;;;;;;;7.13;2.70;;;;;;;;;;5026338;28;20674;-83
2022/02/02 05:25:45;;;;;;;5.75;2.17;;;6.10;99.90;;;;;;5026690;28;20232;-82
2022/02/02 05:42:21;;;;;;;9.20;2.70;;;6.10;99.90;;;;;;5026632;28;20208;-83
2022/02/02 05:50:45;;;;;;;5.43;2.90;;;6.00;99.90;;;;;;5024692;28;20213;-82
2022/02/02 05:53:12;;;;;;;5.30;3.63;;;;;;;;;;5024948;28;20204;-82
2022/02/02 05:55:41;;;;;;;6.30;3.10;;;6.10;99.90;;;;;;5025427;28;20685;-82
2022/02/02 05:58:10;;;;;;;3.05;1.85;;;;;;;;;;5027800;28;20235;-83
2022/02/02 06:00:37;;;;;;;6.28;1.92;;;6.20;99.90;;;;;;5027932;28;20619;-83
2022/02/02 06:03:09;;;;;;;2.40;2.15;;;;;;;;;;5026532;28;20292;-83
2022/02/02 06:05:37;;;;;;;3.30;3.00;;;;;;;;;;5025798;28;20303;-83
2022/02/02 06:08:04;;;;;;;9.98;2.47;;;;;;;;;;5027591;28;20203;-83
2022/02/02 06:10:32;;;;;;;6.65;2.30;;;;;;;;;;5027556;28;20200;-83
2022/02/02 06:13:01;;;;;;;6.22;2.45;;;;;;;;;;5027724;28;20654;-83
2022/02/02 06:15:29;;;;;;;4.53;2.10;;;;;;;;;;5027099;28;20744;-83
2022/02/02 06:17:56;;;;;;;7.00;3.20;;;;;;;;;;5024060;28;20286;-83
2022/02/02 06:20:24;;;;;;;6.85;2.20;;;6.30;99.90;;;;;;5027688;28;20283;-84
2022/02/02 06:22:53;;;;;;;7.43;2.63;;;;;;;;;;5026801;28;20204;-84
2022/02/02 06:25:23;;;;;;;6.85;2.20;;;;;;;;;;5025662;28;20225;-83
2022/02/02 06:27:53;;;;;;;8.55;3.55;;;;;;;;;;5027229;28;20224;-83
2022/02/02 06:30:20;;;;;;;6.85;3.53;;;;;;;;;;5022035;28;20351;-83
2022/02/02 06:32:52;;;;;;;5.05;3.58;;;;;;;;;;5024490;28;20193;-83
2022/02/02 06:35:19;;;;;;;2.45;2.25;;;;;;;;;;5030515;28;20228;-83
2022/02/02 06:37:47;;;;;;;5.97;2.65;;;;;;;;;;5030714;28;20620;-83
2022/02/02 06:40:15;;;;;;;4.00;2.05;;;;;;;;;;5024721;28;20189;-82
2022/02/02 06:42:43;;;;;;;2.92;2.47;;;;;;;;;;5024236;28;20669;-83
2022/02/02 06:45:11;;;;;;;2.40;2.00;;;;;;;;;;5024064;28;20326;-83
2022/02/02 06:47:39;;;;;;;8.48;2.70;;;;;;;;;;5030502;28;20227;-83
2022/02/02 06:50:13;;;;;;;7.03;3.60;;;;;;;;;;5030865;28;20678;-83
2022/02/02 06:52:46;;;;;;;6.15;2.97;;;;;;;;;;5030701;28;20207;-83
2022/02/02 06:55:25;;;;;;;4.45;2.25;;;;;;;;;;5030020;28;20197;-83
2022/02/02 06:58:10;;;;;;;8.63;3.35;;;6.40;99.70;;;;;;5030256;28;20216;-83
2022/02/02 07:00:53;;;;;;;9.32;3.03;;;6.10;99.90;;;;;;5021639;28;20193;-83
2022/02/02 07:03:29;;;;;;;6.13;2.47;;;6.30;99.90;;;;;;5029272;28;20232;-83
2022/02/02 07:06:13;;;;;;;6.00;2.58;;;6.30;99.90;;;;;;5029229;28;20259;-83
2022/02/02 07:08:57;;;;;;;6.97;2.90;;;6.30;99.90;;;;;;5030384;28;20208;-83
2022/02/02 07:11:34;;;;;;;12.50;3.00;;;6.30;99.90;;;;;;5030863;28;20216;-84
2022/02/02 07:14:14;;;;;;;6.55;2.25;;;6.50;99.90;;;;;;5029442;28;20200;-85
2022/02/02 07:16:55;;;;;;;7.50;3.35;;;6.40;99.90;;;;;;5025380;28;20216;-84
2022/02/02 07:19:39;;;;;;;5.45;2.65;;;6.50;99.90;;;;;;5030118;28;20292;-84
2022/02/02 07:22:26;;;;;;;9.77;2.58;;;6.20;99.90;;;;;;5030424;28;20224;-84
2022/02/02 07:27:55;;;;;;;6.60;3.08;;;;;;;;;;5020135;28;20346;-83
2022/02/02 07:30:31;;;;;;;9.75;3.63;;;;;;;;;;5026027;28;20203;-84
2022/02/02 07:33:09;;;;;;;11.13;3.60;;;6.40;99.90;;;;;;5030216;28;20283;-84
2022/02/02 07:35:59;;;;;;;5.55;3.22;;;6.50;99.90;;;;;;5029160;28;20208;-84
2022/02/02 07:38:32;;;;;;;6.63;2.80;;;6.40;99.90;;;;;;5030190;28;20241;-84
2022/02/02 07:41:06;;;;;;;8.15;3.45;;;6.30;99.90;;;;;;5019512;28;20263;-83
2022/02/02 07:43:37;;;;;;;4.40;3.55;;;6.20;99.90;;;;;;5018165;28;20204;-83
2022/02/02 07:46:06;;;;;;;6.13;3.30;;;6.30;99.90;;;;;;5010086;28;20264;-83
2022/02/02 07:48:36;;;;;;;7.65;4.00;;;6.30;99.90;;;;;;5020460;28;20193;-84
2022/02/02 07:51:04;;;;;;;8.38;3.85;;;;;;;;;;5030087;28;20282;-84
2022/02/02 07:53:37;;;;;;;4.70;2.78;;;7.10;99.90;;;;;;5028753;28;20196;-84
2022/02/02 07:56:10;;;;;;;8.60;3.58;;;;;;;;;;5024969;28;20269;-84
2022/02/02 07:58:40;;;;;;;4.35;2.22;;;6.30;99.90;;;;;;5018358;28;20647;-83
2022/02/02 08:01:07;;;;;;;7.28;3.88;;;;;;;;;;5030119;28;20201;-84
2022/02/02 08:03:39;;;;;;;7.68;3.88;;;;;;;;;;5029498;28;20192;-84
2022/02/02 08:06:08;;;;;;;7.38;3.20;;;6.30;99.90;;;;;;5027016;28;20221;-83
2022/02/02 08:08:39;;;;;;;5.07;2.60;;;;;;;;;;5029597;28;20421;-84
2022/02/02 08:11:09;;;;;;;14.60;3.38;;;;;;;;;;5030100;28;20298;-83
2022/02/02 08:13:42;;;;;;;8.57;2.55;;;6.40;99.90;;;;;;5024419;28;20235;-83
2022/02/02 08:16:12;;;;;;;10.38;2.95;;;;;;;;;;5029124;28;20211;-83
2022/02/02 08:18:41;;;;;;;2.53;2.17;;;;;;;;;;5028569;28;20189;-83
2022/02/02 08:21:09;;;;;;;8.45;2.80;;;;;;;;;;5029762;28;20208;-84
2022/02/02 08:23:38;;;;;;;5.95;3.47;;;;;;;;;;5029228;28;20246;-83
2022/02/02 08:26:10;;;;;;;5.28;2.78;;;;;;;;;;5028011;28;20228;-83
2022/02/02 08:28:38;;;;;;;7.40;2.25;;;;;;;;;;5029112;28;20280;-83
2022/02/02 08:31:05;;;;;;;11.98;2.88;;;;;;;;;;5028642;28;20201;-84
2022/02/02 08:33:37;;;;;;;8.63;4.13;;;;;;;;;;5029000;28;20292;-83
2022/02/02 08:36:08;;;;;;;2.67;2.38;;;;;;;;;;5028791;28;20208;-83
2022/02/02 08:38:45;;;;;;;6.55;2.58;;;;;;;;;;5028909;28;20203;-83
2022/02/02 08:41:17;;;;;;;5.40;3.47;;;;;;;;;;5028816;28;20208;-83
2022/02/02 08:43:50;;;;;;;6.95;4.82;;;5.90;99.90;;;;;;5029183;28;20288;-83
2022/02/02 08:46:24;;;;;;;15.13;5.03;;;6.00;99.90;;;;;;5028620;28;20255;-83
2022/02/02 08:48:54;;;;;;;5.88;2.80;;;6.10;99.90;;;;;;5028691;28;20698;-83
2022/02/02 08:51:24;;;;;;;13.82;5.25;;;6.00;99.90;;;;;;5028791;28;20239;-83
2022/02/02 08:54:02;;;;;;;8.90;3.53;;;6.00;99.90;;;;;;5028017;28;20627;-83
2022/02/02 08:59:26;;;;;;;9.57;4.35;;;;;;;;;;5028575;28;20201;-84
2022/02/02 09:01:57;;;;;;;7.88;3.53;;;6.20;99.90;;;;;;5028811;28;20192;-84
2022/02/02 09:07:09;;;;;;;9.93;3.85;;;;;;;;;;5027001;28;20386;-83
2022/02/02 09:09:54;;;;;;;12.68;4.03;;;6.50;99.90;;;;;;5028366;28;20197;-83
2022/02/02 09:34:47;;;;;;;10.48;4.10;;;;;;;;;;5084123;28;20206;-82
2022/02/02 09:37:16;;;;;;;9.70;3.60;;;;;;;;;;5085287;28;20194;-82
2022/02/02 09:39:53;;;;;;;8.18;3.80;;;;;;;;;;5084100;28;20281;-82
2022/02/02 09:42:21;;;;;;;7.68;3.40;;;;;;;;;;5085679;28;20222;-82
2022/02/02 09:44:52;;;;;;;13.25;4.05;;;6.80;99.90;;;;;;5085119;28;20283;-82
2022/02/02 09:47:23;;;;;;;6.95;3.47;;;;;;;;;;5084583;28;20315;-82
2022/02/02 09:49:58;;;;;;;13.77;3.63;;;;;;;;;;5072469;28;20226;-82
2022/02/02 09:52:32;;;;;;;7.53;3.58;;;;;;;;;;5071476;28;20288;-82
2022/02/02 09:55:07;;;;;;;12.77;3.38;;;6.80;99.90;;;;;;5077990;28;20203;-82
2022/02/02 09:57:53;;;;;;;10.77;3.28;;;;;;;;;;5064327;28;20209;-82
2022/02/02 10:00:46;;;;;;;9.98;4.95;;;6.90;99.90;;;;;;5062829;28;20191;-82
2022/02/02 10:03:35;;;;;;;11.43;3.80;;;6.80;99.90;;;;;;5062372;28;20249;-82
2022/02/02 10:06:08;;;;;;;4.70;4.15;;;6.90;99.90;;;;;;5061149;28;20238;-82
2022/02/02 10:14:31;;;;;;;5.85;3.10;;;7.30;99.90;;;;;;5064177;28;20298;-82
2022/02/02 10:16:58;;;;;;;5.78;3.10;;;;;;;;;;5078853;28;20203;-82
2022/02/02 10:19:26;;;;;;;15.77;3.35;;;;;;;;;;5079516;28;20199;-82
2022/02/02 10:21:55;;;;;;;9.90;3.20;;;;;;;;;;5063829;28;20692;-81
2022/02/02 10:24:43;;;;;;;10.18;5.72;;;6.90;99.90;;;;;;5063107;28;20207;-81
2022/02/02 10:27:22;;;;;;;10.32;3.05;;;;;;;;;;5064546;28;20226;-82
2022/02/02 10:29:49;;;;;;;7.40;3.30;;;;;;;;;;5063313;28;20280;-82
2022/02/02 10:32:36;;;;;;;6.78;3.75;;;6.40;99.90;;;;;;5084211;28;20202;-82
2022/02/02 10:35:03;;;;;;;10.52;3.97;;;;;;;;;;5050265;28;20599;-82
2022/02/02 10:37:32;;;;;;;7.53;4.10;;;;;;;;;;5050896;28;20203;-82
2022/02/02 10:39:59;;;;;;;8.05;4.40;;;;;;;;;;5050236;28;20246;-82
2022/02/02 10:42:40;;;;;;;7.80;4.40;;;;;;;;;;5050384;28;20302;-82
2022/02/02 10:45:17;;;;;;;7.50;4.28;;;;;;;;;;5051699;28;20622;-82
2022/02/02 10:47:47;;;;;;;8.65;3.75;;;;;;;;;;5065849;28;20865;-82
2022/02/02 10:50:20;;;;;;;8.88;4.18;;;;;;;;;;5052278;28;20250;-82
2022/02/02 10:53:13;;;;;;;8.88;4.70;;;6.80;99.90;;;;;;5061973;28;20240;-82
2022/02/02 10:55:58;;;;;;;8.23;4.32;;;6.80;99.90;;;;;;5057274;28;20279;-82
2022/02/02 10:58:42;;;;;;;11.43;4.30;;;6.90;99.90;;;;;;5054135;28;20211;-82
2022/02/02 11:01:24;;;;;;;8.43;4.10;;;7.10;99.90;;;;;;5050579;28;20265;-83
2022/02/02 11:06:41;;;;;;;12.63;4.18;;;7.00;99.90;;;;;;5048974;28;20234;-82
2022/02/02 11:09:09;;;;;;;12.13;3.88;;;7.10;99.90;;;;;;5050261;28;20208;-82
2022/02/02 11:11:40;;;;;;;5.20;3.95;;;7.00;99.90;;;;;;5049875;28;20254;-82
2022/02/02 11:14:18;;;;;;;15.00;4.03;;;7.10;99.90;;;;;;5063685;28;20693;-82
2022/02/02 11:16:51;;;;;;;12.43;4.15;;;7.10;99.90;;;;;;5062498;28;20199;-82
2022/02/02 11:19:21;;;;;;;14.60;4.25;;;7.10;99.90;;;;;;5062683;28;20243;-82
2022/02/02 11:21:48;;;;;;;11.43;3.80;;;7.10;99.90;;;;;;5049754;28;20206;-82
2022/02/02 11:24:16;;;;;;;10.57;3.80;;;7.10;99.90;;;;;;5053751;28;20188;-82
2022/02/02 11:26:45;;;;;;;6.97;4.03;;;7.10;99.90;;;;;;5070067;28;20199;-83
2022/02/02 11:29:41;;;;;;;10.98;3.83;;;7.10;99.90;;;;;;5066603;28;20196;-82
2022/02/02 11:32:09;;;;;;;8.00;3.80;;;7.20;99.90;;;;;;5064456;28;20303;-83
2022/02/02 11:34:40;;;;;;;7.07;4.22;;;7.20;99.90;;;;;;5067187;28;20261;-83
2022/02/02 11:37:08;;;;;;;4.25;3.40;;;7.20;99.70;;;;;;5069778;28;20196;-82
2022/02/02 11:39:43;;;;;;;7.82;3.60;;;7.20;99.90;;;;;;5064087;28;20199;-82
2022/02/02 11:42:44;;;;;;;7.82;3.00;;;7.40;99.80;;;;;;5069706;28;20215;-82
2022/02/02 11:45:39;;;;;;;10.27;3.75;;;7.50;98.40;;;;;;5054614;28;20763;-82
2022/02/02 11:48:10;;;;;;;11.57;3.95;;;7.50;98.50;;;;;;5050770;28;20563;-82
2022/02/02 11:50:47;;;;;;;9.82;3.22;;;7.80;99.90;;;;;;5064040;28;20192;-82
2022/02/02 11:53:57;;;;;;;10.07;4.57;;;7.80;99.90;;;;;;5058138;28;20210;-82
2022/02/02 11:56:27;;;;;;;15.40;3.78;;;7.90;98.00;;;;;;5050211;28;20632;-82
2022/02/02 11:58:55;;;;;;;7.53;3.28;;;8.00;97.70;;;;;;5054225;28;20692;-82
2022/02/02 12:04:26;;;;;;;12.10;3.40;;;7.80;98.40;;;;;;5084393;27;20730;-82
2022/02/02 12:07:01;;;;;;;11.52;5.07;;;8.00;97.00;;;;;;5084656;28;20207;-82
2022/02/02 12:09:38;;;;;;;11.73;3.40;;;10.50;99.90;;;;;;5083672;28;20202;-82
2022/02/02 12:48:58;;;;;;;6.27;3.60;;;8.10;99.60;;;;;;5105754;27;20740;-82
2022/02/02 12:55:18;;;;;;;7.07;3.17;;;7.80;96.20;;;;;;5097608;28;20611;-83
2022/02/02 12:57:37;;;;;;;9.60;3.60;;;8.30;99.90;;;;;;5098798;28;20229;-83
2022/02/02 13:00:10;;;;;;;16.43;4.20;;;8.10;97.00;;;;;;5105816;28;20627;-83
2022/02/02 13:02:39;;;;;;;8.23;3.43;;;8.80;99.90;;;;;;5099395;28;20628;-83
2022/02/02 13:05:09;;;;;;;7.40;3.03;;;8.70;99.90;;;;;;5105054;28;21027;-83
2022/02/02 13:07:40;;;;;;;3.00;2.53;;;8.80;97.10;;;;;;5105228;28;20759;-83
2022/02/02 13:10:10;;;;;;;8.47;2.53;;;8.70;96.10;;;;;;5104442;28;20635;-83
2022/02/02 13:12:41;;;;;;;4.10;2.60;;;8.20;97.60;;;;;;5105244;28;20968;-83
2022/02/02 13:15:20;;;;;;;6.03;3.10;;;8.20;97.90;;;;;;5101632;28;20664;-83
2022/02/02 13:18:02;;;;;;;7.87;2.90;;;7.80;97.80;;;;;;5105373;28;20627;-83
2022/02/02 13:23:36;;;;;;;8.43;3.35;;;7.70;99.90;;;;;;5092853;28;20221;-83
2022/02/02 13:26:09;;;;;;;9.93;4.57;;;7.40;99.90;;;;;;5104635;28;20256;-83
2022/02/02 13:28:52;;;;;;;7.07;4.20;;;7.20;99.90;;;;;;5105124;28;20244;-82
2022/02/02 13:31:42;;;;;;;9.88;3.67;;;7.20;99.90;;;;;;5104944;28;20206;-83
2022/02/02 13:34:18;;;;;;;8.60;2.55;;;7.10;99.90;;;;;;5104235;28;20206;-83
2022/02/02 13:37:05;;;;;;;4.57;2.55;;;6.90;99.90;;;;;;5104886;28;20285;-83
2022/02/02 13:45:23;;;;;;;3.03;2.28;;;;;;;;;;5104455;28;20277;-83
2022/02/02 13:48:13;;;;;;;1.65;1.40;;;6.40;99.90;;;;;;5102919;28;20626;-83
2022/02/02 14:05:26;;;;;;;7.28;2.45;;;6.00;99.90;;;;;;5090270;28;20206;-83
2022/02/02 14:08:14;;;;;;;4.05;2.50;;;6.00;99.90;;;;;;5090833;28;20215;-83
2022/02/02 14:11:05;;;;;;;3.45;2.65;;;6.10;99.90;;;;;;5090135;28;20201;-83
2022/02/02 14:32:58;;;;;;;7.60;3.28;;;6.00;99.90;;;;;;5090300;28;20205;-84
2022/02/02 14:35:24;;;;;;;8.30;4.13;;;5.90;99.90;;;;;;5089807;28;20244;-83
2022/02/02 14:37:53;;;;;;;7.63;3.60;;;6.10;99.90;;;;;;5090203;28;20706;-83
2022/02/02 14:40:27;;;;;;;6.93;4.18;;;6.00;99.90;;;;;;5090405;28;20630;-84
2022/02/02 14:42:59;;;;;;;7.07;4.32;;;6.00;99.90;;;;;;5089873;28;20190;-83
2022/02/02 14:45:29;;;;;;;5.07;3.50;;;6.00;99.90;;;;;;5089510;28;20191;-84
2022/02/02 14:48:04;;;;;;;6.63;4.40;;;6.50;99.90;;;;;;5081351;28;20230;-83
2022/02/02 14:50:35;;;;;;;9.70;4.57;;;5.90;99.90;;;;;;5089104;28;20449;-84
2022/02/02 14:53:14;;;;;;;9.02;4.22;;;6.00;99.90;;;;;;5083137;28;20210;-84
2022/02/02 15:28:48;;;;;;;9.82;3.65;;;6.30;99.90;;;;;;5089305;28;20232;-83
2022/02/02 15:31:17;;;;;;;4.78;4.03;;;6.20;99.90;;;;;;5089005;28;20191;-83
2022/02/02 15:33:47;;;;;;;4.70;3.05;;;6.30;99.90;;;;;;5089291;28;20320;-83
2022/02/02 15:36:45;;;;;;;5.50;2.90;;;6.30;99.90;;;;;;5088633;28;20210;-83
2022/02/02 15:39:12;;;;;;;7.38;3.45;;;6.30;99.90;;;;;;5089019;28;20218;-83
2022/02/02 15:41:53;;;;;;;3.88;3.33;;;6.30;99.90;;;;;;5083921;28;20203;-83
2022/02/02 15:55:53;;;;;;;5.80;3.70;;;6.20;99.90;;;;;;5080903;28;20202;-83
2022/02/02 15:58:15;;;;;;;6.80;3.13;;;6.00;99.90;;;;;;5088486;28;20210;-83
2022/02/02 16:03:30;;;;;;;5.60;3.50;;;6.00;99.90;;;;;;5087868;28;20340;-83
2022/02/02 16:06:06;;;;;;;4.90;4.38;;;6.00;99.90;;;;;;5087905;28;20203;-83
2022/02/02 16:08:35;;;;;;;5.10;4.65;;;6.00;99.90;;;;;;5088919;28;20728;-83
2022/02/02 16:11:14;;;;;;;5.00;3.50;;;6.00;99.90;;;;;;5088253;28;20672;-84
2022/02/02 16:13:44;;;;;;;5.88;2.80;;;6.10;99.90;;;;;;5088276;28;20202;-83
2022/02/02 16:16:24;;;;;;;5.30;2.65;;;6.10;99.90;;;;;;5086971;28;20479;-83
2022/02/02 16:18:58;;;;;;;16.05;8.10;;;6.10;99.90;;;;;;5088676;28;20573;-83
2022/02/02 16:38:02;;;;;;;5.28;3.92;;;6.20;99.90;;;;;;5081186;28;20218;-84
2022/02/02 16:40:33;;;;;;;17.35;15.65;;;6.30;99.90;;;;;;5087162;28;20194;-83
2022/02/02 16:43:13;;;;;;;8.63;5.68;;;6.90;99.90;;;;;;5088366;28;20565;-84
2022/02/02 16:45:42;;;;;;;5.90;4.25;;;6.20;99.90;;;;;;5087562;28;20209;-83
2022/02/02 16:48:09;;;;;;;4.80;4.40;;;6.30;99.90;;;;;;5088441;28;20222;-83
2022/02/02 16:50:41;;;;;;;4.40;3.38;;;6.30;99.90;;;;;;5086946;28;20197;-84
2022/02/02 16:53:13;;;;;;;3.58;3.28;;;6.30;99.90;;;;;;5088210;28;20209;-83
2022/02/02 16:55:47;;;;;;;5.10;3.40;;;6.30;99.90;;;;;;5087666;28;20282;-83
2022/02/02 17:31:18;;;;;;;8.32;6.13;;;6.00;99.90;;;;;;5076852;28;20206;-83
2022/02/02 17:33:51;;;;;;;6.20;4.20;;;6.00;99.90;;;;;;5081670;28;20412;-83
2022/02/02 17:36:23;;;;;;;3.10;2.80;;;5.90;99.90;;;;;;5092667;28;20198;-83
2022/02/02 17:38:56;;;;;;;4.00;3.60;;;5.90;99.90;;;;;;5093003;28;20668;-84
2022/02/02 18:20:23;;;;;;;5.20;2.75;;;;;;;;;;5089913;28;20230;-83
2022/02/02 18:22:57;;;;;;;3.65;3.05;;;;;;;;;;5089733;28;20233;-84
2022/02/02 18:25:32;;;;;;;3.17;2.88;;;;;;;;;;5087158;28;20281;-84
2022/02/02 18:28:07;;;;;;;4.50;4.10;;;5.70;99.90;;;;;;5083558;28;20317;-83
2022/02/02 18:30:45;;;;;;;3.05;2.75;;;5.80;99.90;;;;;;5089727;28;20573;-84
2022/02/02 18:33:25;;;;;;;4.93;4.45;;;5.70;99.90;;;;;;5089681;28;20224;-83
2022/02/02 18:35:59;;;;;;;8.35;5.68;;;;;;;;;;5089281;28;20205;-84
2022/02/02 18:47:04;;;;;;;8.60;7.68;;;;;;;;;;5089598;28;20211;-83
2022/02/02 18:49:48;;;;;;;8.27;6.30;;;5.30;99.90;;;;;;5089217;28;20723;-84
2022/02/02 18:55:16;;;;;;;7.13;5.85;;;5.20;99.90;;;;;;5088611;28;20668;-83
2022/02/02 18:57:55;;;;;;;7.18;5.60;;;;;;;;;;5089018;28;20668;-84
2022/02/02 19:00:43;;;;;;;8.70;7.30;;;5.30;99.90;;;;;;5088979;28;20195;-84
2022/02/02 19:31:15;;;;;;;8.25;5.60;;;6.00;99.90;;;;;;5089020;28;20281;-83
2022/02/02 19:56:23;;;;;;;7.47;5.13;;;;;;;;;;5064462;28;20214;-83
2022/02/02 20:01:55;;;;;;;7.70;4.80;;;4.50;99.90;;;;;;5087932;28;20218;-84
2022/02/02 20:04:40;;;;;;;5.97;5.30;;;4.60;99.90;;;;;;5087315;28;20199;-84
2022/02/02 20:07:23;;;;;;;6.47;5.50;;;;;;;;;;5088738;28;20260;-84
2022/02/02 20:09:57;;;;;;;5.60;5.10;;;;;;;;;;5087970;28;20232;-83
2022/02/02 20:12:27;;;;;;;4.32;3.90;;;;;;;;;;5088465;28;20282;-83
2022/02/02 20:14:57;;;;;;;5.55;4.95;;;4.40;99.90;;;;;;5087262;28;20582;-84
2022/02/02 20:17:26;;;;;;;5.95;5.35;;;;;;;;;;5088535;28;20603;-84
2022/02/02 20:19:58;;;;;;;6.32;5.43;;;4.50;99.90;;;;;;5088229;28;20812;-84
2022/02/02 20:22:30;;;;;;;5.60;4.93;;;;;;;;;;5086940;28;20194;-83
2022/02/02 20:24:59;;;;;;;5.85;5.05;;;;;;;;;;5087484;28;20243;-83
2022/02/02 20:27:29;;;;;;;6.40;4.93;;;4.40;99.90;;;;;;5088216;28;20195;-83
2022/02/02 20:29:56;;;;;;;7.43;4.63;;;;;;;;;;5087396;28;20234;-83
2022/02/02 20:32:23;;;;;;;5.40;4.90;;;;;;;;;;5088225;28;20179;-83
2022/02/02 20:34:51;;;;;;;6.40;5.47;;;;;;;;;;5087188;28;20187;-83
2022/02/02 20:37:19;;;;;;;5.38;4.85;;;;;;;;;;5087995;28;20198;-83
2022/02/02 20:39:53;;;;;;;4.70;4.30;;;;;;;;;;5088121;28;20210;-83
2022/02/02 20:42:27;;;;;;;5.22;4.78;;;;;;;;;;5087096;28;20255;-83
2022/02/02 20:45:10;;;;;;;7.18;5.57;;;;;;;;;;5086669;28;20679;-83
2022/02/02 21:04:43;;;;;;;11.43;8.40;;;;;;;;;;5077599;28;20202;-83
2022/02/02 21:10:12;;;;;;;8.20;6.55;;;;;;;;;;5030201;28;20244;-83
2022/02/02 21:15:27;;;;;;;5.30;4.80;;;;;;;;;;5090582;28;20209;-82
2022/02/02 21:17:58;;;;;;;7.43;5.90;;;5.00;99.90;;;;;;5091746;28;20195;-83
2022/02/02 21:20:31;;;;;;;7.10;6.40;;;;;;;;;;5092099;28;20191;-83
2022/02/02 21:23:02;;;;;;;6.40;5.80;;;;;;;;;;5091925;28;20267;-82
2022/02/02 21:25:45;;;;;;;7.50;6.70;;;;;;;;;;5091046;28;20187;-82
2022/02/02 21:28:14;;;;;;;9.00;6.00;;;;;;;;;;5091663;28;20237;-82
2022/02/02 21:30:42;;;;;;;5.93;5.38;;;5.20;99.90;;;;;;5091676;28;20277;-82
2022/02/02 21:33:14;;;;;;;6.40;5.80;;;;;;;;;;5091716;28;20209;-82
2022/02/02 21:35:42;;;;;;;5.68;5.13;;;;;;;;;;5090994;28;20210;-82
2022/02/02 21:38:16;;;;;;;5.75;5.15;;;;;;;;;;5091639;28;20668;-82
2022/02/02 21:40:49;;;;;;;6.78;4.38;;;;;;;;;;5081565;28;20194;-82
2022/02/02 21:43:17;;;;;;;6.60;5.07;;;;;;;;;;5091868;28;20205;-82
2022/02/02 21:45:44;;;;;;;5.47;4.97;;;;;;;;;;5090245;28;20230;-82
2022/02/02 21:48:12;;;;;;;7.32;5.20;;;;;;;;;;5091582;28;20211;-82
2022/02/02 21:50:46;;;;;;;7.13;6.43;;;;;;;;;;5091016;28;20198;-82
2022/02/02 21:53:14;;;;;;;5.15;4.65;;;;;;;;;;5091125;28;20202;-82
2022/02/02 21:55:42;;;;;;;5.70;5.20;;;5.40;99.90;;;;;;5090301;28;20194;-82
2022/02/02 21:58:09;;;;;;;7.57;6.88;;;5.40;99.90;;;;;;5090707;28;20607;-82
2022/02/02 22:00:37;;;;;;;7.95;6.70;;;5.50;99.90;;;;;;5090779;28;20256;-82
2022/02/02 22:03:05;;;;;;;6.82;6.15;;;5.40;99.90;;;;;;5091399;28;20798;-82
2022/02/02 22:05:31;;;;;;;12.23;8.05;;;5.40;99.90;;;;;;5089929;28;20226;-82
2022/02/02 22:07:58;;;;;;;9.70;8.15;;;5.50;99.90;;;;;;5086131;28;20309;-82
2022/02/02 22:10:25;;;;;;;9.10;8.18;;;5.50;99.90;;;;;;5088268;28;20236;-82
2022/02/02 22:12:52;;;;;;;8.57;7.68;;;5.50;99.90;;;;;;5090518;28;20218;-82
2022/02/02 22:15:24;;;;;;;7.72;6.75;;;5.60;99.90;;;;;;5090284;28;20194;-82
2022/02/02 22:17:52;;;;;;;8.88;7.85;;;5.70;99.90;;;;;;5090742;28;20577;-82